Time;durP1;ratioP1;P1;durP2;ratioP2;P2;SDS_P1;SDS_P2;PMS_P1;PMS_P2;Temp;Humidity;BMP_temperature;BMP_pressure;BME280_temperature;BME280_humidity;BME280_pressure;Samples;Min_cycle;Max_cycle;Signal;HPM_P1;HPM_P2
2022/01/23 00:02:22;;;;;;;15.75;9.35;;;;;;;-1.50;83.85;99928.88;5099634;28;20040;-93
2022/01/23 00:04:51;;;;;;;18.70;11.40;;;;;;;-1.48;84.36;99941.13;5071734;28;20055;-92
2022/01/23 00:07:18;;;;;;;21.67;12.30;;;;;;;-1.56;84.66;99945.19;5063162;28;20052;-91
2022/01/23 00:09:48;;;;;;;17.65;10.55;;;;;;;-1.48;85.66;99969.84;5071239;28;20400;-93
2022/01/23 00:12:18;;;;;;;17.30;9.90;;;;;;;-1.71;86.09;99932.41;5067200;28;20087;-92
2022/01/23 00:17:49;;;;;;;30.42;17.17;;;;;;;-1.75;88.33;99953.09;5117940;27;20374;-94
2022/01/23 00:20:15;;;;;;;30.52;17.77;;;;;;;-1.74;88.50;99954.84;5108470;28;20417;-93
2022/01/23 00:22:45;;;;;;;35.00;19.65;;;;;;;-1.76;87.70;99944.34;5096211;28;20051;-90
2022/01/23 00:31:17;;;;;;;29.45;18.77;;;;;;;-1.68;87.59;99939.47;5094329;27;20370;-92
2022/01/23 00:33:56;;;;;;;30.02;17.95;;;;;;;-1.59;87.23;99960.69;5094353;28;20133;-94
2022/01/23 00:36:22;;;;;;;32.17;18.13;;;;;;;-1.84;86.79;99919.72;5094043;28;20127;-94
2022/01/23 00:38:49;;;;;;;28.02;17.67;;;;;;;-1.74;87.75;99960.06;5096358;28;20063;-92
2022/01/23 00:41:16;;;;;;;24.45;15.88;;;;;;;-1.79;87.13;99948.56;5094132;28;20036;-91
2022/01/23 00:43:43;;;;;;;32.95;17.55;;;;;;;-1.92;87.75;99928.94;5093694;28;20066;-92
2022/01/23 00:49:28;;;;;;;21.58;15.85;;;;;;;-1.76;87.34;99946.06;5114227;27;20400;-91
2022/01/23 00:51:54;;;;;;;26.23;15.73;;;;;;;-1.77;87.63;99941.72;5083748;28;20572;-93
2022/01/23 00:54:21;;;;;;;22.27;14.90;;;;;;;-1.88;88.37;99928.22;5074039;28;20055;-93
2022/01/23 00:56:47;;;;;;;23.73;14.82;;;;;;;-1.87;88.05;99941.31;5074003;28;20037;-92
2022/01/23 00:59:13;;;;;;;24.55;15.30;;;;;;;-1.94;88.29;99947.09;5080843;28;20028;-92
2022/01/23 01:01:39;;;;;;;23.27;15.57;;;;;;;-1.94;89.09;99954.91;5081409;28;20044;-92
2022/01/23 01:04:05;;;;;;;26.23;16.48;;;;;;;-2.05;90.06;99948.38;5074008;28;20052;-93
2022/01/23 01:06:32;;;;;;;25.58;16.83;;;;;;;-2.05;90.19;99943.16;5078681;28;20041;-92
2022/01/23 01:09:05;;;;;;;25.33;16.98;;;;;;;-1.98;90.65;99959.94;5080018;28;20120;-94
2022/01/23 01:36:02;;;;;;;26.80;18.67;;;;;;;-2.09;90.43;99956.88;5116146;27;20378;-92
2022/01/23 01:38:28;;;;;;;31.38;18.88;;;;;;;-2.17;91.46;99943.56;5116438;28;20036;-92
2022/01/23 01:40:54;;;;;;;26.65;16.70;;;;;;;-2.21;90.55;99935.50;5116640;28;20043;-92
2022/01/23 01:43:19;;;;;;;28.23;16.85;;;;;;;-2.12;90.88;99965.47;5115092;28;20560;-92
2022/01/23 01:45:53;;;;;;;29.63;16.65;;;;;;;-2.15;90.77;99967.03;5112866;28;20068;-93
2022/01/23 01:48:24;;;;;;;29.15;18.98;;;;;;;-2.37;92.09;99933.97;5113630;28;20071;-91
2022/01/23 01:50:52;;;;;;;25.40;16.70;;;;;;;-2.24;92.68;99961.44;5112684;28;20591;-92
2022/01/23 01:53:21;;;;;;;26.60;17.58;;;;;;;-2.43;92.51;99952.81;5112769;28;20044;-92
2022/01/23 01:55:54;;;;;;;28.90;16.85;;;;;;;-2.44;93.42;99945.84;5113219;28;20043;-92
2022/01/23 02:10:27;;;;;;;31.42;18.35;;;;;;;-2.37;93.13;99978.25;5134556;27;20376;-94
2022/01/23 02:55:45;;;;;;;27.95;15.52;;;;;;;-2.51;95.23;99972.44;5148018;27;20383;-92
2022/01/23 02:58:14;;;;;;;24.75;16.45;;;;;;;-2.54;96.18;99982.72;5123025;27;20461;-93
2022/01/23 03:01:07;;;;;;;24.48;15.38;;;;;;;-2.70;96.08;99953.38;5132069;27;20043;-93
2022/01/23 03:03:36;;;;;;;28.65;15.10;;;;;;;-2.71;96.32;99946.41;5121202;28;20489;-92
2022/01/23 03:09:55;;;;;;;27.85;16.98;;;;;;;-2.82;94.36;99959.75;5115227;27;20125;-93
2022/01/23 03:31:06;;;;;;;27.63;13.43;;;;;;;-2.90;95.64;99995.84;5178667;27;20377;-94
2022/01/23 03:33:36;;;;;;;20.45;13.32;;;;;;;-2.71;94.24;100010.59;5141723;27;20046;-92
2022/01/23 03:36:05;;;;;;;19.27;11.65;;;;;;;-2.64;93.09;99990.97;5168863;27;20035;-92
2022/01/23 03:38:32;;;;;;;19.38;12.00;;;;;;;-2.19;89.85;100006.81;5171627;27;20050;-92
2022/01/23 03:40:58;;;;;;;17.80;12.20;;;;;;;-2.17;89.08;99998.28;5170072;27;20077;-93
2022/01/23 03:43:30;;;;;;;21.95;11.80;;;;;;;-2.15;88.47;99993.97;5167626;27;20042;-93
2022/01/23 03:46:20;;;;;;;20.17;10.85;;;;;;;-2.21;88.99;99996.34;5165159;27;20392;-93
2022/01/23 03:51:32;;;;;;;22.70;14.25;;;;;;;-2.11;87.99;100000.22;5108101;27;20429;-93
2022/01/23 03:53:57;;;;;;;18.30;11.60;;;;;;;-2.02;87.83;100031.91;5100521;28;20078;-93
2022/01/23 03:56:23;;;;;;;17.77;11.30;;;;;;;-2.31;88.05;99982.00;5095985;28;20090;-92
2022/01/23 03:58:50;;;;;;;21.25;13.45;;;;;;;-2.02;87.43;100020.59;5096197;28;20083;-92
2022/01/23 04:01:16;;;;;;;20.80;13.80;;;;;;;-2.05;87.89;100015.25;5095703;28;20032;-93
2022/01/23 04:03:44;;;;;;;23.00;13.23;;;;;;;-2.30;87.80;99977.69;5095467;28;20052;-94
2022/01/23 04:06:10;;;;;;;17.20;10.52;;;;;;;-2.08;88.10;100013.41;5094619;28;20045;-92
2022/01/23 04:08:40;;;;;;;19.98;11.88;;;;;;;-2.25;88.53;99986.63;5093783;28;20044;-94
2022/01/23 04:11:09;;;;;;;20.48;12.18;;;;;;;-2.06;87.99;100019.56;5094457;28;20128;-93
2022/01/23 04:59:34;;;;;;;22.90;15.65;;;;;;;-2.67;91.79;100037.66;5093242;27;20390;-92
2022/01/23 04:59:46;;;;;;;25.30;15.98;;;;;;;-2.89;92.89;100026.25;5133890;27;20403;-91
2022/01/23 05:04:59;;;;;;;32.17;19.85;;;;;;;-2.81;94.06;100045.72;5137732;27;20385;-94
2022/01/23 05:07:28;;;;;;;26.95;17.55;;;;;;;-2.90;93.34;100041.00;5100556;28;20486;-95
2022/01/23 05:09:54;;;;;;;29.48;19.85;;;;;;;-2.87;93.50;100061.06;5102310;28;20519;-93
2022/01/23 05:12:25;;;;;;;33.95;20.83;;;;;;;-3.18;94.72;100024.91;5108346;28;20036;-93
2022/01/23 05:14:52;;;;;;;37.08;18.90;;;;;;;-3.13;94.87;100033.81;5104704;28;20036;-94
2022/01/23 05:17:19;;;;;;;31.38;17.48;;;;;;;-3.27;94.61;100022.75;5103545;28;20119;-93
2022/01/23 05:19:47;;;;;;;33.75;20.10;;;;;;;-3.07;94.49;100035.81;5108983;28;20075;-94
2022/01/23 05:22:32;;;;;;;34.22;20.30;;;;;;;-3.05;94.03;100022.06;5105451;28;20037;-91
2022/01/23 05:27:51;;;;;;;31.75;21.25;;;;;;;-3.01;95.56;100060.41;5146584;27;20384;-92
2022/01/23 05:30:17;;;;;;;35.90;21.25;;;;;;;-3.07;95.11;100048.81;5112314;28;20599;-92
2022/01/23 05:32:43;;;;;;;34.53;20.60;;;;;;;-3.10;94.98;100042.66;5112886;28;20040;-94
2022/01/23 05:35:11;;;;;;;32.90;19.60;;;;;;;-2.96;95.08;100078.84;5112463;28;20525;-94
2022/01/23 05:37:37;;;;;;;35.00;21.02;;;;;;;-3.05;94.95;100073.22;5113680;28;20061;-92
2022/01/23 05:40:06;;;;;;;29.30;19.65;;;;;;;-3.27;96.14;100042.63;5113002;28;20065;-91
2022/01/23 05:42:32;;;;;;;35.97;20.80;;;;;;;-3.14;95.86;100061.53;5111997;28;20046;-93
2022/01/23 05:44:59;;;;;;;31.02;19.58;;;;;;;-3.30;95.61;100035.59;5114062;28;20272;-92
2022/01/23 05:47:25;;;;;;;34.47;19.35;;;;;;;-3.11;96.46;100076.41;5111642;28;20589;-92
2022/01/23 05:49:51;;;;;;;27.35;17.80;;;;;;;-3.19;96.81;100057.84;5112205;28;20075;-92
2022/01/23 05:52:17;;;;;;;28.70;18.30;;;;;;;-3.22;96.65;100054.19;5114164;28;20040;-93
2022/01/23 05:54:43;;;;;;;27.50;17.33;;;;;;;-3.14;95.32;100084.06;5113959;28;20043;-95
2022/01/23 05:57:09;;;;;;;27.55;16.98;;;;;;;-3.22;95.93;100086.28;5112979;28;20040;-93
2022/01/23 05:59:34;;;;;;;25.08;17.33;;;;;;;-3.46;95.79;100065.16;5113628;28;20081;-93
2022/01/23 06:02:02;;;;;;;27.50;17.35;;;;;;;-3.29;96.28;100104.13;5112440;28;20044;-93
2022/01/23 06:04:28;;;;;;;31.50;18.08;;;;;;;-3.44;96.78;100083.44;5103262;28;20097;-93
2022/01/23 06:06:57;;;;;;;27.35;17.50;;;;;;;-3.40;97.10;100103.59;5112684;28;20040;-92
2022/01/23 06:09:29;;;;;;;26.40;16.42;;;;;;;-3.47;97.13;100076.41;5111864;28;20044;-93
2022/01/23 06:11:55;;;;;;;26.30;17.08;;;;;;;-3.44;97.78;100089.53;5112732;28;20048;-93
2022/01/23 06:14:21;;;;;;;28.88;15.75;;;;;;;-3.33;97.80;100093.56;5113486;28;20094;-93
2022/01/23 06:16:47;;;;;;;23.65;16.83;;;;;;;-3.37;97.30;100094.22;5113397;28;20035;-94
2022/01/23 06:19:17;;;;;;;25.85;15.88;;;;;;;-3.32;97.64;100084.94;5112722;28;20044;-93
2022/01/23 06:21:43;;;;;;;25.88;17.15;;;;;;;-3.40;97.63;100080.19;5110846;28;20070;-92
2022/01/23 06:24:14;;;;;;;25.40;16.83;;;;;;;-3.17;96.45;100110.78;5115460;28;20487;-94
2022/01/23 06:26:43;;;;;;;28.88;15.55;;;;;;;-3.22;96.20;100107.09;5115967;28;20051;-93
2022/01/23 06:29:10;;;;;;;24.10;15.27;;;;;;;-3.27;96.13;100100.78;5113802;28;20047;-93
2022/01/23 06:31:36;;;;;;;26.58;15.18;;;;;;;-3.46;96.16;100093.75;5111642;28;20043;-96
2022/01/23 06:34:02;;;;;;;26.25;15.93;;;;;;;-3.37;96.95;100117.63;5113878;28;20375;-95
2022/01/23 06:36:30;;;;;;;29.63;17.52;;;;;;;-3.41;96.83;100107.00;5115993;28;20089;-93
2022/01/23 06:38:56;;;;;;;27.85;16.25;;;;;;;-3.42;97.27;100111.31;5104149;28;20501;-94
2022/01/23 06:41:22;;;;;;;24.45;16.42;;;;;;;-3.39;97.09;100132.25;5101284;28;20047;-93
2022/01/23 06:43:51;;;;;;;27.88;16.00;;;;;;;-3.51;97.58;100118.66;5101794;28;20048;-94
2022/01/23 06:46:17;;;;;;;25.05;15.80;;;;;;;-3.50;97.58;100120.44;5100664;28;20036;-93
2022/01/23 06:48:43;;;;;;;25.60;13.50;;;;;;;-3.54;97.45;100111.56;5103011;28;20078;-94
2022/01/23 06:51:09;;;;;;;23.73;13.73;;;;;;;-3.56;98.11;100113.19;5101267;28;20044;-94
2022/01/23 06:53:36;;;;;;;22.02;13.82;;;;;;;-3.55;97.92;100109.78;5101721;28;20494;-92
2022/01/23 06:56:04;;;;;;;20.35;13.02;;;;;;;-3.36;97.85;100134.13;5102013;28;20036;-93
2022/01/23 06:58:30;;;;;;;20.20;12.68;;;;;;;-3.18;97.16;100142.84;5100160;28;20093;-93
2022/01/23 07:00:56;;;;;;;23.50;14.10;;;;;;;-3.38;96.19;100128.84;5100361;28;20052;-94
2022/01/23 07:03:22;;;;;;;23.63;14.18;;;;;;;-3.40;97.47;100120.09;5103609;28;20055;-95
2022/01/23 07:05:48;;;;;;;22.90;15.20;;;;;;;-3.34;97.96;100132.47;5105465;28;20511;-94
2022/01/23 07:08:14;;;;;;;26.98;15.65;;;;;;;-3.03;98.19;100160.06;5105485;28;20059;-93
2022/01/23 07:10:42;;;;;;;26.00;14.65;;;;;;;-3.00;97.63;100174.09;5103614;28;20493;-93
2022/01/23 07:13:08;;;;;;;25.52;15.68;;;;;;;-3.21;97.73;100137.50;5102691;28;20040;-93
2022/01/23 07:15:34;;;;;;;29.88;17.08;;;;;;;-2.96;97.29;100169.94;5102715;28;20486;-92
2022/01/23 07:17:59;;;;;;;27.88;17.88;;;;;;;-2.99;97.76;100155.06;5102169;28;20505;-93
2022/01/23 07:20:28;;;;;;;28.65;16.70;;;;;;;-2.98;96.77;100140.34;5105503;28;20070;-94
2022/01/23 07:22:54;;;;;;;35.97;18.95;;;;;;;-2.95;97.02;100159.63;5102461;28;20069;-94
2022/01/23 07:25:20;;;;;;;32.05;19.95;;;;;;;-2.96;96.64;100151.72;5100966;28;20048;-93
2022/01/23 07:27:51;;;;;;;36.03;19.75;;;;;;;-2.93;96.84;100155.38;5102094;28;20040;-93
2022/01/23 07:30:29;;;;;;;33.75;20.92;;;;;;;-2.84;96.86;100159.22;5101599;28;20040;-95
2022/01/23 07:32:55;;;;;;;30.40;19.40;;;;;;;-2.62;96.13;100185.50;5101604;28;20044;-92
2022/01/23 07:35:21;;;;;;;32.42;18.58;;;;;;;-2.56;95.95;100171.84;5101725;28;20123;-94
2022/01/23 07:37:47;;;;;;;33.22;19.25;;;;;;;-2.35;94.90;100172.88;5099932;28;20075;-93
2022/01/23 07:40:12;;;;;;;41.45;21.23;;;;;;;-2.31;94.60;100171.31;5100200;28;20040;-93
2022/01/23 07:42:40;;;;;;;35.35;20.15;;;;;;;-2.05;94.41;100197.69;5099014;28;20494;-94
2022/01/23 07:45:09;;;;;;;26.88;17.10;;;;;;;-2.13;93.73;100174.75;5097083;28;20036;-95
2022/01/23 07:47:35;;;;;;;26.60;16.48;;;;;;;-2.05;93.01;100182.06;5097063;28;20043;-94
2022/01/23 07:50:06;;;;;;;28.00;16.58;;;;;;;-1.89;92.29;100193.28;5097575;28;20130;-93
2022/01/23 07:52:35;;;;;;;26.00;16.48;;;;;;;-1.88;91.65;100188.94;5097456;28;20055;-93
2022/01/23 07:55:03;;;;;;;33.22;19.80;;;;;;;-1.51;91.28;100235.81;5095404;28;20109;-92
2022/01/23 07:57:42;;;;;;;29.45;17.88;;;;;;;-1.62;90.50;100204.88;5094287;28;20390;-94
2022/01/23 08:00:12;;;;;;;30.25;17.52;;;;;;;-1.36;89.21;100226.91;5096845;28;20032;-93
2022/01/23 08:02:41;;;;;;;28.63;16.70;;;;;;;-1.18;88.49;100234.63;5096735;28;20048;-94
2022/01/23 08:05:10;;;;;;;30.15;17.98;;;;;;;-1.24;88.21;100214.34;5096418;28;20085;-93
2022/01/23 08:07:36;;;;;;;31.38;18.42;;;;;;;-0.99;86.99;100236.31;5093589;28;20094;-94
2022/01/23 08:10:04;;;;;;;29.27;18.08;;;;;;;-0.98;84.97;100218.09;5096082;28;20047;-94
2022/01/23 08:12:31;;;;;;;29.88;18.65;;;;;;;-0.83;84.50;100210.88;5095917;28;20083;-94
2022/01/23 08:14:59;;;;;;;31.40;18.75;;;;;;;-0.70;84.18;100199.22;5095580;28;20072;-92
2022/01/23 08:17:26;;;;;;;36.00;21.05;;;;;;;-0.55;84.21;100198.97;5095478;28;20094;-94
2022/01/23 08:19:54;;;;;;;39.15;22.63;;;;;;;-0.16;84.55;100229.25;5095622;28;20036;-94
2022/01/23 08:22:20;;;;;;;38.58;22.35;;;;;;;-0.16;82.54;100203.09;5096264;28;20097;-95
2022/01/23 08:24:46;;;;;;;33.60;21.15;;;;;;;0.13;82.14;100225.13;5096161;28;20040;-94
2022/01/23 08:27:12;;;;;;;32.38;20.33;;;;;;;0.29;81.52;100224.91;5095146;28;20040;-95
2022/01/23 08:29:37;;;;;;;33.70;19.90;;;;;;;0.53;80.38;100238.00;5095460;28;20044;-94
2022/01/23 08:32:04;;;;;;;33.30;19.77;;;;;;;0.73;78.42;100248.28;5094575;28;20405;-94
2022/01/23 08:34:32;;;;;;;30.40;20.33;;;;;;;0.59;77.64;100219.91;5095404;28;20463;-93
2022/01/23 08:36:58;;;;;;;30.80;19.80;;;;;;;0.81;77.67;100236.38;5097267;28;20478;-94
2022/01/23 08:39:25;;;;;;;28.15;19.02;;;;;;;0.71;77.55;100208.06;5097854;28;20432;-93
2022/01/23 08:41:52;;;;;;;31.58;19.73;;;;;;;0.82;76.65;100219.81;5097330;28;20148;-95
2022/01/23 08:44:20;;;;;;;31.58;19.75;;;;;;;0.70;77.06;100214.16;5095515;28;20504;-95
2022/01/23 08:46:46;;;;;;;33.58;20.00;;;;;;;0.62;77.56;100198.16;5095516;28;20062;-93
2022/01/23 08:49:12;;;;;;;35.55;22.00;;;;;;;0.82;77.77;100212.88;5095691;28;20586;-94
2022/01/23 08:51:39;;;;;;;32.67;20.20;;;;;;;1.09;77.29;100221.63;5095607;28;20530;-94
2022/01/23 08:54:05;;;;;;;33.72;19.58;;;;;;;1.23;76.41;100221.25;5095009;28;20048;-94
2022/01/23 08:56:31;;;;;;;33.25;19.23;;;;;;;1.34;75.54;100220.72;5095725;28;20032;-94
2022/01/23 08:59:00;;;;;;;32.28;20.38;;;;;;;1.39;75.78;100222.66;5097980;28;20127;-95
2022/01/23 09:01:28;;;;;;;29.08;16.60;;;;;;;1.40;75.42;100234.91;5100269;28;20067;-94
2022/01/23 09:03:57;;;;;;;24.10;15.35;;;;;;;1.15;76.33;100206.09;5100655;28;20047;-94
2022/01/23 09:06:24;;;;;;;23.65;15.18;;;;;;;1.28;77.02;100229.28;5102745;28;20402;-94
2022/01/23 09:08:54;;;;;;;23.42;13.75;;;;;;;1.20;76.96;100201.94;5099419;28;20048;-94
2022/01/23 09:11:40;;;;;;;25.50;14.85;;;;;;;1.46;77.31;100236.84;5094412;28;20383;-93
2022/01/23 09:14:07;;;;;;;27.02;15.93;;;;;;;1.55;77.08;100210.06;5106412;28;20065;-94
2022/01/23 09:16:34;;;;;;;21.98;14.45;;;;;;;1.78;76.09;100201.19;5108005;28;20044;-94
2022/01/23 09:19:02;;;;;;;46.17;26.67;;;;;;;2.04;74.92;100203.72;5102227;28;20470;-94
2022/01/23 09:21:32;;;;;;;37.33;21.65;;;;;;;2.21;74.23;100215.63;5100898;28;20040;-94
2022/01/23 09:24:14;;;;;;;35.25;19.02;;;;;;;2.42;73.08;100220.59;5101396;28;20122;-93
2022/01/23 09:26:40;;;;;;;29.52;17.90;;;;;;;2.63;71.34;100209.81;5097323;28;20067;-93
2022/01/23 09:29:16;;;;;;;27.77;17.33;;;;;;;2.89;70.53;100241.16;5095822;28;20059;-91
2022/01/23 09:31:50;;;;;;;46.28;29.85;;;;;;;2.86;71.62;100254.19;5095147;28;20422;-95
2022/01/23 09:34:18;;;;;;;29.05;18.90;;;;;;;2.97;70.32;100223.88;5095731;28;20377;-94
2022/01/23 09:36:44;;;;;;;32.53;20.08;;;;;;;3.13;69.85;100253.19;5098101;28;20036;-93
2022/01/23 09:39:15;;;;;;;29.33;18.90;;;;;;;3.07;69.61;100210.13;5099619;28;20092;-94
2022/01/23 09:41:49;;;;;;;24.95;16.30;;;;;;;3.23;67.28;100215.78;5102712;28;20048;-92
2022/01/23 09:44:17;;;;;;;34.08;24.75;;;;;;;3.36;67.19;100217.88;5101313;28;20044;-92
2022/01/23 09:46:45;;;;;;;27.27;19.52;;;;;;;3.19;67.64;100242.81;5099338;28;20440;-93
2022/01/23 09:49:14;;;;;;;30.20;21.40;;;;;;;3.08;67.89;100217.16;5100983;28;20048;-92
2022/01/23 09:51:50;;;;;;;38.90;25.73;;;;;;;3.04;68.07;100190.78;5104028;28;20053;-94
2022/01/23 09:54:18;;;;;;;26.80;15.63;;;;;;;3.25;66.76;100186.06;5099718;28;20044;-93
2022/01/23 09:56:44;;;;;;;26.17;16.73;;;;;;;3.51;66.15;100212.09;5101961;28;20047;-95
2022/01/23 09:59:11;;;;;;;27.33;17.38;;;;;;;3.43;65.35;100204.03;5099165;28;20742;-95
2022/01/23 10:01:38;;;;;;;28.35;18.55;;;;;;;3.47;65.94;100204.97;5099087;28;20040;-93
2022/01/23 10:04:04;;;;;;;45.88;27.92;;;;;;;3.41;66.52;100212.75;5099397;28;20040;-93
2022/01/23 10:06:33;;;;;;;24.05;17.30;;;;;;;3.29;66.45;100197.53;5097996;28;20100;-91
2022/01/23 10:09:05;;;;;;;30.65;19.50;;;;;;;3.33;66.22;100180.09;5096188;28;20066;-91
2022/01/23 10:11:39;;;;;;;24.83;14.43;;;;;;;3.05;65.94;100175.00;5097097;28;20074;-92
2022/01/23 10:14:06;;;;;;;29.13;20.63;;;;;;;3.41;66.66;100208.34;5099850;28;20040;-91
2022/01/23 10:16:35;;;;;;;27.35;20.13;;;;;;;3.34;65.60;100190.66;5099746;28;20032;-94
2022/01/23 10:19:03;;;;;;;34.92;25.45;;;;;;;3.35;65.61;100167.88;5100560;28;20121;-94
2022/01/23 10:21:38;;;;;;;27.08;17.77;;;;;;;3.63;63.53;100196.63;5099716;28;20040;-94
2022/01/23 10:24:06;;;;;;;68.80;48.53;;;;;;;3.75;62.01;100203.88;5099333;28;20436;-93
2022/01/23 10:26:46;;;;;;;23.02;15.10;;;;;;;3.99;61.44;100222.03;5099323;28;20044;-91
2022/01/23 10:29:14;;;;;;;40.78;21.17;;;;;;;4.03;61.01;100221.22;5099727;28;20040;-92
2022/01/23 10:32:20;;;;;;;18.60;10.87;;;;;;;3.81;59.34;100180.34;5102817;28;20098;-93
2022/01/23 10:34:49;;;;;;;15.82;9.40;;;;;;;4.45;57.33;100206.34;5096944;28;20040;-95
2022/01/23 10:37:28;;;;;;;18.42;11.43;;;;;;;4.60;55.32;100184.66;5100961;28;20047;-95
2022/01/23 10:40:01;;;;;;;13.32;9.73;;;;;;;4.80;54.12;100201.75;5099657;28;20067;-95
2022/01/23 10:48:42;;;;;;;16.88;10.40;;;;;;;4.60;53.92;100193.47;5135747;27;20845;-95
2022/01/23 10:51:28;;;;;;;20.98;11.52;;;;;;;4.71;54.68;100189.28;5116097;28;20044;-94
2022/01/23 10:53:59;;;;;;;19.30;12.23;;;;;;;4.85;55.27;100186.91;5115990;28;20047;-95
2022/01/23 10:56:26;;;;;;;19.33;11.98;;;;;;;4.79;55.85;100149.00;5115007;28;20071;-94
2022/01/23 10:59:00;;;;;;;16.02;11.43;;;;;;;4.89;55.29;100149.19;5113524;28;20052;-93
2022/01/23 11:01:28;;;;;;;16.30;10.10;;;;;;;5.01;52.24;100147.63;5114504;28;20470;-93
2022/01/23 11:04:14;;;;;;;18.10;12.40;;;;;;;5.28;54.31;100173.59;5114484;28;20050;-95
2022/01/23 11:06:57;;;;;;;21.73;12.95;;;;;;;5.09;55.93;100133.72;5114343;28;20050;-94
2022/01/23 11:09:28;;;;;;;22.73;17.30;;;;;;;4.97;55.70;100159.91;5114375;28;20062;-94
2022/01/23 11:12:03;;;;;;;21.60;14.40;;;;;;;4.85;56.17;100155.28;5112992;28;20044;-94
2022/01/23 11:17:31;;;;;;;21.17;13.23;;;;;;;4.60;56.41;100129.31;5112900;27;20853;-90
2022/01/23 11:20:01;;;;;;;18.77;12.27;;;;;;;4.53;56.16;100144.13;5113746;28;20063;-93
2022/01/23 11:22:30;;;;;;;16.02;10.55;;;;;;;4.48;56.17;100143.16;5117283;28;20505;-92
2022/01/23 11:25:01;;;;;;;36.60;22.73;;;;;;;4.54;55.36;100164.38;5115327;28;20440;-92
2022/01/23 11:27:37;;;;;;;20.75;13.80;;;;;;;4.50;55.75;100162.53;5112535;28;20068;-92
2022/01/23 11:30:08;;;;;;;21.02;11.82;;;;;;;4.34;55.51;100140.28;5094726;28;20053;-94
2022/01/23 11:32:40;;;;;;;28.65;12.45;;;;;;;4.32;55.27;100132.31;5095969;28;20093;-94
2022/01/23 11:35:12;;;;;;;21.38;13.05;;;;;;;4.50;55.55;100157.25;5095801;28;20040;-92
2022/01/23 11:37:46;;;;;;;24.88;14.63;;;;;;;4.32;55.88;100129.69;5098086;28;20123;-93
2022/01/23 11:53:46;;;;;;;31.45;18.63;;;;;;;4.93;54.26;100108.84;5191206;27;20385;-90
2022/01/23 11:56:37;;;;;;;17.83;11.48;;;;;;;5.14;53.83;100133.84;5140862;27;20047;-92
2022/01/23 11:59:26;;;;;;;20.88;12.52;;;;;;;5.01;53.83;100092.28;5141730;27;20124;-92
2022/01/23 12:02:26;;;;;;;19.43;13.30;;;;;;;5.23;54.17;100119.91;5152650;27;20031;-93
2022/01/23 12:05:20;;;;;;;19.63;11.38;;;;;;;5.28;54.04;100116.47;5134479;27;20042;-92
2022/01/23 12:08:28;;;;;;;15.55;10.00;;;;;;;5.36;53.29;100116.59;5134253;27;20043;-94
2022/01/23 12:17:38;;;;;;;16.48;10.35;;;;;;;5.46;52.08;100076.28;5136735;27;20380;-92
2022/01/23 12:20:06;;;;;;;17.45;10.75;;;;;;;5.59;51.49;100095.81;5134189;28;20126;-93
2022/01/23 12:22:43;;;;;;;42.42;16.38;;;;;;;5.59;51.34;100081.75;5135962;28;20043;-94
2022/01/23 12:25:22;;;;;;;20.98;12.50;;;;;;;5.74;50.32;100081.94;5135646;28;20040;-93
2022/01/23 12:28:09;;;;;;;19.60;12.07;;;;;;;5.68;51.64;100059.03;5138226;28;20096;-93
2022/01/23 12:30:36;;;;;;;21.80;12.07;;;;;;;5.81;51.00;100067.09;5136117;28;20047;-92
2022/01/23 12:33:22;;;;;;;20.63;11.82;;;;;;;5.79;50.37;100053.88;5136408;27;20092;-92
2022/01/23 12:35:51;;;;;;;18.52;11.32;;;;;;;5.76;49.80;100049.44;5134622;28;20039;-91
2022/01/23 12:38:20;;;;;;;15.60;10.05;;;;;;;5.79;49.38;100053.88;5140366;27;20035;-92
2022/01/23 12:40:48;;;;;;;16.25;10.27;;;;;;;5.85;49.73;100051.28;5152694;27;20427;-93
2022/01/23 12:43:17;;;;;;;15.27;10.02;;;;;;;5.87;49.87;100051.31;5136593;27;20043;-93
2022/01/23 12:45:54;;;;;;;19.08;11.73;;;;;;;5.97;50.50;100050.63;5133027;28;20067;-93
2022/01/23 12:48:45;;;;;;;18.50;11.57;;;;;;;6.13;50.77;100060.47;5135661;28;20130;-92
2022/01/23 12:51:38;;;;;;;16.55;11.55;;;;;;;6.23;50.84;100056.19;5136926;27;20043;-92
2022/01/23 12:54:26;;;;;;;16.80;10.73;;;;;;;6.21;50.53;100038.56;5138045;28;20073;-92
2022/01/23 12:56:53;;;;;;;17.25;10.35;;;;;;;6.26;50.78;100040.38;5136060;28;20032;-93
2022/01/23 12:59:26;;;;;;;16.55;10.20;;;;;;;6.28;50.53;100022.78;5135430;28;20039;-92
2022/01/23 13:02:00;;;;;;;17.90;11.23;;;;;;;6.41;50.75;100054.63;5135124;28;20509;-94
2022/01/23 13:04:33;;;;;;;18.77;11.25;;;;;;;6.20;51.37;100018.28;5134152;28;20047;-92
2022/01/23 13:07:20;;;;;;;17.85;11.50;;;;;;;6.28;52.37;100038.63;5133553;28;20047;-94
2022/01/23 13:10:05;;;;;;;16.15;10.88;;;;;;;6.28;52.06;100028.06;5137206;27;20047;-94
2022/01/23 13:30:16;;;;;;;18.90;11.40;;;;;;;6.66;56.15;100014.34;5149241;27;20360;-94
2022/01/23 13:32:46;;;;;;;18.52;11.43;;;;;;;6.71;55.11;99990.59;5133403;28;20492;-94
2022/01/23 13:35:15;;;;;;;23.20;14.52;;;;;;;6.82;54.35;100001.25;5133432;28;20043;-95
2022/01/23 13:37:44;;;;;;;37.15;18.50;;;;;;;6.73;55.57;99992.38;5133393;28;20046;-93
2022/01/23 13:40:13;;;;;;;22.90;14.27;;;;;;;6.81;56.27;100010.03;5133182;28;20043;-94
2022/01/23 13:51:56;;;;;;;18.23;12.07;;;;;;;6.70;56.89;99997.66;5125877;27;20370;-93
2022/01/23 14:00:16;;;;;;;17.63;12.02;;;;;;;6.72;57.86;99979.13;5112488;27;20357;-94
2022/01/23 14:02:44;;;;;;;20.33;12.20;;;;;;;6.69;57.52;99982.63;5113263;28;20432;-94
2022/01/23 14:05:13;;;;;;;19.43;12.73;;;;;;;6.79;57.77;100000.34;5113761;28;20066;-94
2022/01/23 14:07:40;;;;;;;18.60;11.73;;;;;;;6.62;57.42;99972.91;5113199;28;20089;-94
2022/01/23 14:10:13;;;;;;;19.65;12.05;;;;;;;6.75;57.87;99992.38;5114687;28;20055;-95
2022/01/23 14:12:40;;;;;;;17.50;12.05;;;;;;;6.72;57.71;99985.31;5113292;28;20078;-94
2022/01/23 14:15:13;;;;;;;16.45;11.57;;;;;;;6.61;57.65;99967.59;5113821;28;20061;-93
2022/01/23 14:17:42;;;;;;;16.73;12.00;;;;;;;6.53;58.21;99955.22;5114745;28;20044;-94
2022/01/23 14:20:10;;;;;;;;;;;;;;;6.74;58.56;99993.25;5114605;28;20541;-93
2022/01/23 14:22:40;;;;;;;15.98;10.90;;;;;;;6.63;58.38;99972.00;5113976;28;19915;-93
2022/01/23 14:25:22;;;;;;;16.75;11.40;;;;;;;6.68;58.58;99975.59;5114150;28;20044;-93
2022/01/23 14:28:02;;;;;;;18.33;11.38;;;;;;;6.64;57.92;99965.00;5114151;28;20043;-94
2022/01/23 14:30:43;;;;;;;19.98;11.73;;;;;;;6.68;58.09;99986.16;5113924;28;20044;-93
2022/01/23 14:33:15;;;;;;;14.93;10.15;;;;;;;6.62;57.92;99969.38;5114745;28;20043;-94
2022/01/23 14:35:41;;;;;;;14.45;10.20;;;;;;;6.54;57.64;99956.97;5115116;28;20134;-94
2022/01/23 14:38:10;;;;;;;15.52;9.73;;;;;;;6.49;57.76;99949.88;5113435;28;20043;-95
2022/01/23 14:40:38;;;;;;;14.48;9.40;;;;;;;6.50;57.62;99952.53;5113976;28;20044;-94
2022/01/23 14:43:07;;;;;;;14.65;10.10;;;;;;;6.49;57.84;99961.34;5114760;28;20493;-94
2022/01/23 14:45:35;;;;;;;;;;;;;;;6.65;57.98;99990.53;5115393;28;20044;-94
2022/01/23 14:48:03;;;;;;;19.98;12.18;;;;;;;6.44;58.14;99947.22;5114208;28;19920;-93
2022/01/23 14:50:36;;;;;;;23.00;12.70;;;;;;;6.46;58.65;99945.47;5115055;28;20073;-93
2022/01/23 14:53:08;;;;;;;17.23;11.48;;;;;;;6.50;59.40;99960.44;5113386;28;20044;-93
2022/01/23 14:55:35;;;;;;;16.42;11.93;;;;;;;6.50;59.93;99959.56;5113255;28;20528;-94
2022/01/23 14:58:03;;;;;;;20.98;12.40;;;;;;;6.45;60.18;99956.03;5111846;28;20561;-94
2022/01/23 15:00:31;;;;;;;20.27;13.45;;;;;;;6.33;61.16;99938.28;5112366;28;20484;-94
2022/01/23 15:03:00;;;;;;;19.55;12.95;;;;;;;6.57;60.96;99971.97;5111706;28;20123;-93
2022/01/23 15:05:30;;;;;;;23.13;13.80;;;;;;;6.42;61.35;99954.25;5112672;28;20055;-92
2022/01/23 15:07:59;;;;;;;23.48;13.48;;;;;;;6.25;61.17;99930.31;5112312;28;20050;-93
2022/01/23 15:10:29;;;;;;;31.90;17.73;;;;;;;6.31;62.07;99956.78;5104202;28;20048;-94
2022/01/23 15:12:57;;;;;;;46.88;22.33;;;;;;;6.28;62.01;99969.06;5098510;28;20130;-93
2022/01/23 15:15:23;;;;;;;45.15;23.67;;;;;;;6.37;61.70;99972.66;5099321;28;20398;-94
2022/01/23 15:17:49;;;;;;;24.60;15.50;;;;;;;6.34;61.50;99946.22;5098603;28;20068;-93
2022/01/23 15:20:17;;;;;;;22.20;15.52;;;;;;;6.46;61.21;99960.41;5098356;28;20044;-94